Rolla, Kansas
Current Conditions -  °F | °C
As of 4:35 AM on Sunday 21 Dec 2014 (Local Time) from KGUY Reporting Station
Haze Haze  
Wind Chill: -4°   Ceiling: 400
Heat Index:   Visibility: 5mi
Dew Point: -1°   Wind: 7mph
Humidity: 92%   Direction: 180°S
Pressure: 29.86"   Gusts: NA
Location:  37.12°N, 101.63°W
Report Text: KGUY 211035Z AUTO 18006KT 5SM BR OVC004 00/M01 A2986 RMK AO2 CIG 002V005 T00001011
Loading
Personal Weather Stations






























Interactive Weather Map New forecast layout! Learn more

10-Day Weather Forecast

Advertisements
Track Severe Weather on mobile